sensor_id;sensor_type;location;lat;lon;timestamp;P1;durP1;ratioP1;P2;durP2;ratioP2
56299;SDS011;42209;6.376;-10.782;2023-05-10T00:00:43;4.63;;;4.22;;
56299;SDS011;42209;6.376;-10.782;2023-05-10T00:03:11;5.72;;;4.35;;
56299;SDS011;42209;6.376;-10.782;2023-05-10T00:05:41;5.00;;;4.22;;
56299;SDS011;42209;6.376;-10.782;2023-05-10T00:08:09;5.47;;;4.70;;
56299;SDS011;42209;6.376;-10.782;2023-05-10T00:10:37;5.10;;;3.88;;
56299;SDS011;42209;6.376;-10.782;2023-05-10T00:13:06;5.43;;;3.92;;
56299;SDS011;42209;6.376;-10.782;2023-05-10T00:15:34;5.72;;;4.15;;
56299;SDS011;42209;6.376;-10.782;2023-05-10T00:18:03;6.22;;;4.60;;
56299;SDS011;42209;6.376;-10.782;2023-05-10T00:20:31;5.13;;;3.88;;
56299;SDS011;42209;6.376;-10.782;2023-05-10T00:23:05;4.22;;;3.90;;
56299;SDS011;42209;6.376;-10.782;2023-05-10T00:25:34;4.95;;;4.18;;
56299;SDS011;42209;6.376;-10.782;2023-05-10T00:28:02;5.38;;;4.40;;
56299;SDS011;42209;6.376;-10.782;2023-05-10T00:30:31;5.40;;;3.38;;
56299;SDS011;42209;6.376;-10.782;2023-05-10T00:33:00;4.55;;;3.63;;
56299;SDS011;42209;6.376;-10.782;2023-05-10T00:35:29;3.97;;;3.20;;
56299;SDS011;42209;6.376;-10.782;2023-05-10T00:38:02;4.60;;;3.45;;
56299;SDS011;42209;6.376;-10.782;2023-05-10T00:40:40;4.88;;;3.28;;
56299;SDS011;42209;6.376;-10.782;2023-05-10T00:43:17;5.40;;;3.40;;
56299;SDS011;42209;6.376;-10.782;2023-05-10T00:45:46;4.25;;;3.45;;
56299;SDS011;42209;6.376;-10.782;2023-05-10T00:48:15;5.63;;;3.25;;
56299;SDS011;42209;6.376;-10.782;2023-05-10T00:50:43;4.03;;;2.50;;
56299;SDS011;42209;6.376;-10.782;2023-05-10T00:53:12;4.05;;;3.35;;
56299;SDS011;42209;6.376;-10.782;2023-05-10T00:55:40;4.18;;;3.45;;
56299;SDS011;42209;6.376;-10.782;2023-05-10T00:58:09;4.28;;;3.30;;
56299;SDS011;42209;6.376;-10.782;2023-05-10T01:00:38;4.22;;;3.10;;
56299;SDS011;42209;6.376;-10.782;2023-05-10T01:03:10;4.90;;;3.35;;
56299;SDS011;42209;6.376;-10.782;2023-05-10T01:05:39;3.47;;;2.95;;
56299;SDS011;42209;6.376;-10.782;2023-05-10T01:08:07;3.70;;;2.95;;
56299;SDS011;42209;6.376;-10.782;2023-05-10T01:10:35;6.45;;;3.25;;
56299;SDS011;42209;6.376;-10.782;2023-05-10T01:13:04;4.00;;;3.03;;
56299;SDS011;42209;6.376;-10.782;2023-05-10T01:15:32;4.50;;;2.90;;
56299;SDS011;42209;6.376;-10.782;2023-05-10T01:20:32;4.63;;;3.20;;
56299;SDS011;42209;6.376;-10.782;2023-05-10T01:34:12;6.17;;;3.57;;
56299;SDS011;42209;6.376;-10.782;2023-05-10T01:37:07;8.70;;;3.13;;
56299;SDS011;42209;6.376;-10.782;2023-05-10T01:42:16;9.95;;;5.05;;
56299;SDS011;42209;6.376;-10.782;2023-05-10T01:47:44;8.82;;;4.47;;
56299;SDS011;42209;6.376;-10.782;2023-05-10T01:50:18;6.45;;;3.90;;
56299;SDS011;42209;6.376;-10.782;2023-05-10T01:52:51;10.60;;;3.50;;
56299;SDS011;42209;6.376;-10.782;2023-05-10T01:55:25;5.85;;;4.60;;
56299;SDS011;42209;6.376;-10.782;2023-05-10T01:58:01;10.43;;;3.78;;
56299;SDS011;42209;6.376;-10.782;2023-05-10T02:00:35;8.15;;;3.30;;
56299;SDS011;42209;6.376;-10.782;2023-05-10T02:03:05;8.48;;;3.83;;
56299;SDS011;42209;6.376;-10.782;2023-05-10T02:05:36;9.07;;;3.85;;
56299;SDS011;42209;6.376;-10.782;2023-05-10T02:08:06;7.05;;;3.42;;
56299;SDS011;42209;6.376;-10.782;2023-05-10T02:10:36;9.07;;;3.55;;
56299;SDS011;42209;6.376;-10.782;2023-05-10T02:13:07;7.72;;;3.08;;
56299;SDS011;42209;6.376;-10.782;2023-05-10T02:15:36;7.75;;;3.28;;
56299;SDS011;42209;6.376;-10.782;2023-05-10T02:18:06;6.75;;;3.22;;
56299;SDS011;42209;6.376;-10.782;2023-05-10T02:20:36;8.38;;;3.97;;
56299;SDS011;42209;6.376;-10.782;2023-05-10T02:23:05;6.38;;;2.83;;
56299;SDS011;42209;6.376;-10.782;2023-05-10T02:25:36;7.07;;;3.08;;
56299;SDS011;42209;6.376;-10.782;2023-05-10T02:28:06;5.00;;;2.78;;
56299;SDS011;42209;6.376;-10.782;2023-05-10T02:30:36;8.68;;;3.58;;
56299;SDS011;42209;6.376;-10.782;2023-05-10T02:33:05;6.72;;;3.95;;
56299;SDS011;42209;6.376;-10.782;2023-05-10T02:35:34;7.50;;;3.33;;
56299;SDS011;42209;6.376;-10.782;2023-05-10T02:38:05;6.63;;;3.58;;
56299;SDS011;42209;6.376;-10.782;2023-05-10T02:40:35;7.25;;;2.78;;
56299;SDS011;42209;6.376;-10.782;2023-05-10T02:43:04;6.93;;;2.60;;
56299;SDS011;42209;6.376;-10.782;2023-05-10T02:45:33;7.18;;;3.03;;
56299;SDS011;42209;6.376;-10.782;2023-05-10T02:48:04;8.85;;;3.97;;
56299;SDS011;42209;6.376;-10.782;2023-05-10T02:50:33;4.72;;;2.50;;
56299;SDS011;42209;6.376;-10.782;2023-05-10T02:53:15;6.22;;;2.58;;
56299;SDS011;42209;6.376;-10.782;2023-05-10T02:55:47;7.38;;;2.83;;
56299;SDS011;42209;6.376;-10.782;2023-05-10T02:58:19;7.88;;;2.40;;
56299;SDS011;42209;6.376;-10.782;2023-05-10T03:00:47;7.55;;;3.63;;
56299;SDS011;42209;6.376;-10.782;2023-05-10T03:03:15;6.45;;;3.08;;
56299;SDS011;42209;6.376;-10.782;2023-05-10T03:05:44;9.15;;;3.42;;
56299;SDS011;42209;6.376;-10.782;2023-05-10T03:08:12;7.55;;;2.70;;
56299;SDS011;42209;6.376;-10.782;2023-05-10T03:10:51;5.32;;;2.20;;
56299;SDS011;42209;6.376;-10.782;2023-05-10T03:16:29;6.47;;;2.60;;
56299;SDS011;42209;6.376;-10.782;2023-05-10T03:21:49;5.85;;;2.53;;
56299;SDS011;42209;6.376;-10.782;2023-05-10T03:24:20;8.70;;;2.97;;
56299;SDS011;42209;6.376;-10.782;2023-05-10T03:26:50;5.28;;;2.38;;
56299;SDS011;42209;6.376;-10.782;2023-05-10T03:29:23;4.68;;;2.65;;
56299;SDS011;42209;6.376;-10.782;2023-05-10T03:31:55;4.93;;;2.10;;
56299;SDS011;42209;6.376;-10.782;2023-05-10T03:34:24;4.55;;;1.88;;
56299;SDS011;42209;6.376;-10.782;2023-05-10T03:36:54;4.47;;;2.40;;
56299;SDS011;42209;6.376;-10.782;2023-05-10T03:39:24;5.60;;;2.50;;
56299;SDS011;42209;6.376;-10.782;2023-05-10T03:41:56;4.88;;;2.10;;
56299;SDS011;42209;6.376;-10.782;2023-05-10T03:44:25;3.83;;;2.45;;
56299;SDS011;42209;6.376;-10.782;2023-05-10T03:46:53;4.47;;;2.28;;
56299;SDS011;42209;6.376;-10.782;2023-05-10T03:49:22;3.58;;;1.75;;
56299;SDS011;42209;6.376;-10.782;2023-05-10T03:54:18;5.78;;;2.45;;
56299;SDS011;42209;6.376;-10.782;2023-05-10T03:56:46;5.63;;;2.17;;
56299;SDS011;42209;6.376;-10.782;2023-05-10T03:59:16;5.20;;;2.38;;
56299;SDS011;42209;6.376;-10.782;2023-05-10T04:01:44;5.32;;;2.05;;
56299;SDS011;42209;6.376;-10.782;2023-05-10T04:04:13;4.18;;;2.38;;
56299;SDS011;42209;6.376;-10.782;2023-05-10T04:06:41;3.22;;;1.67;;
56299;SDS011;42209;6.376;-10.782;2023-05-10T04:09:09;2.28;;;1.20;;
56299;SDS011;42209;6.376;-10.782;2023-05-10T04:11:38;3.17;;;1.42;;
56299;SDS011;42209;6.376;-10.782;2023-05-10T04:14:06;5.57;;;2.67;;
56299;SDS011;42209;6.376;-10.782;2023-05-10T04:16:35;3.42;;;1.90;;
56299;SDS011;42209;6.376;-10.782;2023-05-10T04:19:03;3.33;;;1.60;;
56299;SDS011;42209;6.376;-10.782;2023-05-10T04:21:31;3.80;;;1.35;;
56299;SDS011;42209;6.376;-10.782;2023-05-10T04:23:59;4.13;;;1.50;;
56299;SDS011;42209;6.376;-10.782;2023-05-10T04:26:28;2.67;;;1.90;;
56299;SDS011;42209;6.376;-10.782;2023-05-10T04:28:56;4.97;;;1.90;;
56299;SDS011;42209;6.376;-10.782;2023-05-10T04:31:24;5.30;;;2.45;;
56299;SDS011;42209;6.376;-10.782;2023-05-10T04:33:52;3.60;;;1.42;;
56299;SDS011;42209;6.376;-10.782;2023-05-10T04:36:21;5.47;;;1.75;;
56299;SDS011;42209;6.376;-10.782;2023-05-10T04:38:49;6.28;;;1.85;;
56299;SDS011;42209;6.376;-10.782;2023-05-10T04:41:17;5.63;;;1.42;;
56299;SDS011;42209;6.376;-10.782;2023-05-10T04:43:46;4.43;;;1.67;;
56299;SDS011;42209;6.376;-10.782;2023-05-10T04:46:14;5.57;;;2.00;;
56299;SDS011;42209;6.376;-10.782;2023-05-10T04:48:42;4.15;;;1.65;;
56299;SDS011;42209;6.376;-10.782;2023-05-10T04:51:10;4.20;;;1.63;;
56299;SDS011;42209;6.376;-10.782;2023-05-10T04:53:39;5.45;;;1.63;;
56299;SDS011;42209;6.376;-10.782;2023-05-10T04:56:12;3.97;;;1.98;;
56299;SDS011;42209;6.376;-10.782;2023-05-10T04:58:40;4.07;;;1.67;;
56299;SDS011;42209;6.376;-10.782;2023-05-10T05:01:08;5.47;;;1.70;;
56299;SDS011;42209;6.376;-10.782;2023-05-10T05:03:37;4.50;;;1.52;;
56299;SDS011;42209;6.376;-10.782;2023-05-10T05:06:05;3.10;;;1.40;;
56299;SDS011;42209;6.376;-10.782;2023-05-10T05:08:33;4.80;;;2.22;;
56299;SDS011;42209;6.376;-10.782;2023-05-10T05:11:02;3.40;;;1.20;;
56299;SDS011;42209;6.376;-10.782;2023-05-10T05:13:30;3.42;;;1.20;;
56299;SDS011;42209;6.376;-10.782;2023-05-10T05:16:00;4.00;;;1.70;;
56299;SDS011;42209;6.376;-10.782;2023-05-10T05:18:30;2.88;;;1.52;;
56299;SDS011;42209;6.376;-10.782;2023-05-10T05:20:58;3.60;;;1.60;;
56299;SDS011;42209;6.376;-10.782;2023-05-10T05:23:27;3.92;;;1.52;;
56299;SDS011;42209;6.376;-10.782;2023-05-10T05:25:55;3.50;;;1.88;;
56299;SDS011;42209;6.376;-10.782;2023-05-10T05:28:24;3.03;;;1.48;;
56299;SDS011;42209;6.376;-10.782;2023-05-10T05:30:52;4.30;;;1.45;;
56299;SDS011;42209;6.376;-10.782;2023-05-10T05:33:20;4.50;;;1.67;;
56299;SDS011;42209;6.376;-10.782;2023-05-10T05:35:48;6.13;;;2.22;;
56299;SDS011;42209;6.376;-10.782;2023-05-10T05:38:17;5.18;;;1.48;;
56299;SDS011;42209;6.376;-10.782;2023-05-10T05:40:45;5.28;;;1.70;;
56299;SDS011;42209;6.376;-10.782;2023-05-10T05:43:13;3.60;;;1.10;;
56299;SDS011;42209;6.376;-10.782;2023-05-10T05:45:41;3.58;;;1.27;;
56299;SDS011;42209;6.376;-10.782;2023-05-10T05:48:10;3.28;;;1.67;;
56299;SDS011;42209;6.376;-10.782;2023-05-10T05:50:38;3.33;;;1.50;;
56299;SDS011;42209;6.376;-10.782;2023-05-10T05:53:06;4.22;;;1.58;;
56299;SDS011;42209;6.376;-10.782;2023-05-10T05:55:35;5.30;;;1.63;;
56299;SDS011;42209;6.376;-10.782;2023-05-10T05:58:04;5.85;;;1.63;;
56299;SDS011;42209;6.376;-10.782;2023-05-10T06:00:32;3.95;;;1.73;;
56299;SDS011;42209;6.376;-10.782;2023-05-10T06:03:00;3.88;;;1.95;;
56299;SDS011;42209;6.376;-10.782;2023-05-10T06:05:29;3.40;;;1.60;;
56299;SDS011;42209;6.376;-10.782;2023-05-10T06:07:58;4.50;;;1.90;;
56299;SDS011;42209;6.376;-10.782;2023-05-10T06:10:27;3.10;;;1.48;;
56299;SDS011;42209;6.376;-10.782;2023-05-10T06:12:55;5.57;;;2.15;;
56299;SDS011;42209;6.376;-10.782;2023-05-10T06:15:24;4.97;;;2.10;;
56299;SDS011;42209;6.376;-10.782;2023-05-10T06:17:52;2.63;;;1.40;;
56299;SDS011;42209;6.376;-10.782;2023-05-10T06:20:20;6.45;;;2.35;;
56299;SDS011;42209;6.376;-10.782;2023-05-10T06:22:49;5.28;;;2.13;;
56299;SDS011;42209;6.376;-10.782;2023-05-10T06:25:17;3.72;;;1.67;;
56299;SDS011;42209;6.376;-10.782;2023-05-10T06:27:45;3.97;;;1.98;;
56299;SDS011;42209;6.376;-10.782;2023-05-10T06:30:19;4.70;;;2.33;;
56299;SDS011;42209;6.376;-10.782;2023-05-10T06:32:47;6.38;;;2.10;;
56299;SDS011;42209;6.376;-10.782;2023-05-10T06:35:16;7.88;;;2.55;;
56299;SDS011;42209;6.376;-10.782;2023-05-10T06:40:12;8.30;;;3.38;;
56299;SDS011;42209;6.376;-10.782;2023-05-10T06:42:41;5.63;;;2.97;;
56299;SDS011;42209;6.376;-10.782;2023-05-10T06:45:09;6.97;;;3.40;;
56299;SDS011;42209;6.376;-10.782;2023-05-10T06:47:38;7.63;;;3.47;;
56299;SDS011;42209;6.376;-10.782;2023-05-10T06:50:07;8.23;;;3.38;;
56299;SDS011;42209;6.376;-10.782;2023-05-10T06:52:36;11.52;;;4.10;;
56299;SDS011;42209;6.376;-10.782;2023-05-10T06:55:05;9.73;;;3.22;;
56299;SDS011;42209;6.376;-10.782;2023-05-10T07:00:02;9.30;;;3.85;;
56299;SDS011;42209;6.376;-10.782;2023-05-10T07:02:31;14.52;;;5.43;;
56299;SDS011;42209;6.376;-10.782;2023-05-10T07:04:59;12.43;;;4.38;;
56299;SDS011;42209;6.376;-10.782;2023-05-10T07:07:40;12.27;;;3.58;;
56299;SDS011;42209;6.376;-10.782;2023-05-10T07:10:09;12.77;;;5.15;;
56299;SDS011;42209;6.376;-10.782;2023-05-10T07:15:05;11.43;;;5.75;;
56299;SDS011;42209;6.376;-10.782;2023-05-10T07:17:34;11.88;;;5.57;;
56299;SDS011;42209;6.376;-10.782;2023-05-10T07:20:03;12.98;;;5.13;;
56299;SDS011;42209;6.376;-10.782;2023-05-10T07:22:32;16.30;;;5.80;;
56299;SDS011;42209;6.376;-10.782;2023-05-10T07:25:00;10.75;;;5.45;;
56299;SDS011;42209;6.376;-10.782;2023-05-10T07:27:29;9.93;;;5.13;;
56299;SDS011;42209;6.376;-10.782;2023-05-10T07:29:57;13.52;;;5.82;;
56299;SDS011;42209;6.376;-10.782;2023-05-10T07:32:25;11.68;;;5.60;;
56299;SDS011;42209;6.376;-10.782;2023-05-10T07:34:54;14.85;;;5.68;;
56299;SDS011;42209;6.376;-10.782;2023-05-10T07:37:22;14.23;;;6.22;;
56299;SDS011;42209;6.376;-10.782;2023-05-10T07:39:50;13.48;;;5.75;;
56299;SDS011;42209;6.376;-10.782;2023-05-10T07:42:18;13.13;;;5.05;;
56299;SDS011;42209;6.376;-10.782;2023-05-10T07:44:47;8.88;;;5.10;;
56299;SDS011;42209;6.376;-10.782;2023-05-10T07:47:15;8.23;;;5.00;;
56299;SDS011;42209;6.376;-10.782;2023-05-10T07:49:43;11.00;;;5.82;;
56299;SDS011;42209;6.376;-10.782;2023-05-10T07:52:12;14.30;;;6.55;;
56299;SDS011;42209;6.376;-10.782;2023-05-10T07:54:40;9.07;;;4.78;;
56299;SDS011;42209;6.376;-10.782;2023-05-10T07:57:08;12.65;;;5.05;;
56299;SDS011;42209;6.376;-10.782;2023-05-10T07:59:36;9.82;;;5.47;;
56299;SDS011;42209;6.376;-10.782;2023-05-10T08:02:05;9.88;;;4.95;;
56299;SDS011;42209;6.376;-10.782;2023-05-10T08:04:34;9.98;;;5.43;;
56299;SDS011;42209;6.376;-10.782;2023-05-10T08:07:02;9.30;;;5.15;;
56299;SDS011;42209;6.376;-10.782;2023-05-10T08:09:30;9.07;;;5.28;;
56299;SDS011;42209;6.376;-10.782;2023-05-10T08:11:59;9.88;;;4.72;;
56299;SDS011;42209;6.376;-10.782;2023-05-10T08:14:28;9.65;;;4.45;;
56299;SDS011;42209;6.376;-10.782;2023-05-10T08:16:57;8.20;;;5.13;;
56299;SDS011;42209;6.376;-10.782;2023-05-10T08:19:25;8.23;;;5.05;;
56299;SDS011;42209;6.376;-10.782;2023-05-10T08:21:53;9.93;;;5.18;;
56299;SDS011;42209;6.376;-10.782;2023-05-10T08:24:22;9.75;;;4.38;;
56299;SDS011;42209;6.376;-10.782;2023-05-10T08:26:50;8.98;;;4.70;;
56299;SDS011;42209;6.376;-10.782;2023-05-10T08:29:18;8.00;;;3.95;;
56299;SDS011;42209;6.376;-10.782;2023-05-10T08:31:46;6.78;;;3.63;;
56299;SDS011;42209;6.376;-10.782;2023-05-10T08:34:15;9.60;;;4.82;;
56299;SDS011;42209;6.376;-10.782;2023-05-10T08:36:43;5.60;;;3.83;;
56299;SDS011;42209;6.376;-10.782;2023-05-10T08:39:15;7.38;;;4.25;;
56299;SDS011;42209;6.376;-10.782;2023-05-10T08:41:57;7.55;;;4.15;;
56299;SDS011;42209;6.376;-10.782;2023-05-10T08:44:29;5.75;;;4.13;;
56299;SDS011;42209;6.376;-10.782;2023-05-10T08:47:00;8.52;;;4.13;;
56299;SDS011;42209;6.376;-10.782;2023-05-10T08:49:32;6.57;;;3.90;;
56299;SDS011;42209;6.376;-10.782;2023-05-10T08:52:03;5.80;;;3.58;;
56299;SDS011;42209;6.376;-10.782;2023-05-10T08:54:33;8.15;;;4.18;;
56299;SDS011;42209;6.376;-10.782;2023-05-10T08:57:01;5.70;;;3.53;;
56299;SDS011;42209;6.376;-10.782;2023-05-10T08:59:30;8.43;;;3.63;;
56299;SDS011;42209;6.376;-10.782;2023-05-10T09:01:58;6.63;;;4.28;;
56299;SDS011;42209;6.376;-10.782;2023-05-10T09:04:30;9.98;;;3.92;;
56299;SDS011;42209;6.376;-10.782;2023-05-10T09:06:58;8.13;;;3.95;;
56299;SDS011;42209;6.376;-10.782;2023-05-10T09:09:27;5.95;;;4.00;;
56299;SDS011;42209;6.376;-10.782;2023-05-10T09:14:24;4.72;;;3.15;;
56299;SDS011;42209;6.376;-10.782;2023-05-10T09:16:53;6.25;;;3.50;;
56299;SDS011;42209;6.376;-10.782;2023-05-10T09:19:22;6.90;;;3.83;;
56299;SDS011;42209;6.376;-10.782;2023-05-10T09:21:50;5.90;;;3.38;;
56299;SDS011;42209;6.376;-10.782;2023-05-10T09:24:19;5.40;;;3.10;;
56299;SDS011;42209;6.376;-10.782;2023-05-10T09:26:53;6.63;;;3.38;;
56299;SDS011;42209;6.376;-10.782;2023-05-10T09:29:24;5.63;;;3.30;;
56299;SDS011;42209;6.376;-10.782;2023-05-10T09:31:52;5.10;;;2.80;;
56299;SDS011;42209;6.376;-10.782;2023-05-10T09:34:32;5.78;;;3.13;;
56299;SDS011;42209;6.376;-10.782;2023-05-10T09:37:01;4.78;;;3.00;;
56299;SDS011;42209;6.376;-10.782;2023-05-10T09:39:31;7.30;;;2.97;;
56299;SDS011;42209;6.376;-10.782;2023-05-10T09:42:04;6.60;;;2.92;;
56299;SDS011;42209;6.376;-10.782;2023-05-10T09:44:34;5.10;;;2.70;;
56299;SDS011;42209;6.376;-10.782;2023-05-10T09:47:04;5.85;;;3.97;;
56299;SDS011;42209;6.376;-10.782;2023-05-10T09:49:32;6.28;;;3.08;;
56299;SDS011;42209;6.376;-10.782;2023-05-10T09:52:05;6.78;;;3.20;;
56299;SDS011;42209;6.376;-10.782;2023-05-10T09:54:35;4.60;;;2.50;;
56299;SDS011;42209;6.376;-10.782;2023-05-10T09:57:03;3.83;;;2.65;;
56299;SDS011;42209;6.376;-10.782;2023-05-10T09:59:32;6.25;;;2.83;;
56299;SDS011;42209;6.376;-10.782;2023-05-10T10:02:00;5.15;;;3.15;;
56299;SDS011;42209;6.376;-10.782;2023-05-10T10:04:33;5.90;;;2.75;;
56299;SDS011;42209;6.376;-10.782;2023-05-10T10:07:07;5.22;;;2.15;;
56299;SDS011;42209;6.376;-10.782;2023-05-10T10:09:36;7.32;;;2.85;;
56299;SDS011;42209;6.376;-10.782;2023-05-10T10:12:04;7.82;;;2.83;;
56299;SDS011;42209;6.376;-10.782;2023-05-10T10:14:33;9.18;;;3.33;;
56299;SDS011;42209;6.376;-10.782;2023-05-10T10:21:23;5.70;;;2.75;;
56299;SDS011;42209;6.376;-10.782;2023-05-10T10:23:51;5.63;;;2.40;;
56299;SDS011;42209;6.376;-10.782;2023-05-10T10:26:20;5.85;;;2.70;;
56299;SDS011;42209;6.376;-10.782;2023-05-10T10:31:45;6.68;;;2.72;;
56299;SDS011;42209;6.376;-10.782;2023-05-10T10:34:29;4.57;;;2.67;;
56299;SDS011;42209;6.376;-10.782;2023-05-10T10:36:59;3.85;;;2.38;;
56299;SDS011;42209;6.376;-10.782;2023-05-10T10:39:32;6.07;;;2.63;;
56299;SDS011;42209;6.376;-10.782;2023-05-10T10:42:01;4.78;;;2.92;;
56299;SDS011;42209;6.376;-10.782;2023-05-10T10:47:07;5.05;;;2.25;;
56299;SDS011;42209;6.376;-10.782;2023-05-10T10:52:15;3.78;;;2.25;;
56299;SDS011;42209;6.376;-10.782;2023-05-10T10:54:50;4.72;;;2.35;;
56299;SDS011;42209;6.376;-10.782;2023-05-10T10:57:35;5.32;;;2.20;;
56299;SDS011;42209;6.376;-10.782;2023-05-10T11:00:18;5.28;;;2.40;;
56299;SDS011;42209;6.376;-10.782;2023-05-10T11:05:49;6.40;;;2.95;;
56299;SDS011;42209;6.376;-10.782;2023-05-10T11:08:18;4.53;;;2.10;;
56299;SDS011;42209;6.376;-10.782;2023-05-10T11:11:12;4.18;;;1.67;;
56299;SDS011;42209;6.376;-10.782;2023-05-10T11:16:15;4.55;;;1.92;;
56299;SDS011;42209;6.376;-10.782;2023-05-10T11:18:54;3.47;;;2.33;;
56299;SDS011;42209;6.376;-10.782;2023-05-10T11:21:31;3.85;;;2.35;;
56299;SDS011;42209;6.376;-10.782;2023-05-10T11:24:00;3.92;;;1.92;;
56299;SDS011;42209;6.376;-10.782;2023-05-10T11:26:33;5.07;;;2.10;;
56299;SDS011;42209;6.376;-10.782;2023-05-10T11:29:02;4.45;;;2.70;;
56299;SDS011;42209;6.376;-10.782;2023-05-10T11:33:59;5.13;;;2.85;;
56299;SDS011;42209;6.376;-10.782;2023-05-10T11:36:29;4.15;;;2.35;;
56299;SDS011;42209;6.376;-10.782;2023-05-10T11:39:01;4.78;;;2.75;;
56299;SDS011;42209;6.376;-10.782;2023-05-10T11:43:58;8.07;;;4.25;;
56299;SDS011;42209;6.376;-10.782;2023-05-10T11:46:27;6.93;;;3.33;;
56299;SDS011;42209;6.376;-10.782;2023-05-10T11:48:57;5.50;;;3.58;;
56299;SDS011;42209;6.376;-10.782;2023-05-10T11:51:27;6.38;;;2.92;;
56299;SDS011;42209;6.376;-10.782;2023-05-10T11:53:56;6.07;;;3.13;;
56299;SDS011;42209;6.376;-10.782;2023-05-10T11:58:53;4.75;;;2.97;;
56299;SDS011;42209;6.376;-10.782;2023-05-10T12:01:25;6.40;;;3.05;;
56299;SDS011;42209;6.376;-10.782;2023-05-10T12:03:55;5.90;;;3.22;;
56299;SDS011;42209;6.376;-10.782;2023-05-10T12:06:29;4.72;;;2.88;;
56299;SDS011;42209;6.376;-10.782;2023-05-10T12:08:59;3.45;;;2.65;;
56299;SDS011;42209;6.376;-10.782;2023-05-10T12:11:35;4.55;;;2.63;;
56299;SDS011;42209;6.376;-10.782;2023-05-10T12:14:09;4.22;;;2.35;;
56299;SDS011;42209;6.376;-10.782;2023-05-10T12:16:38;3.72;;;2.15;;
56299;SDS011;42209;6.376;-10.782;2023-05-10T12:19:06;4.15;;;2.75;;
56299;SDS011;42209;6.376;-10.782;2023-05-10T12:21:36;4.53;;;2.70;;
56299;SDS011;42209;6.376;-10.782;2023-05-10T12:24:04;5.15;;;2.92;;
56299;SDS011;42209;6.376;-10.782;2023-05-10T12:26:33;5.72;;;3.28;;
56299;SDS011;42209;6.376;-10.782;2023-05-10T12:29:15;3.80;;;2.40;;
56299;SDS011;42209;6.376;-10.782;2023-05-10T12:31:54;5.43;;;2.80;;
56299;SDS011;42209;6.376;-10.782;2023-05-10T12:34:24;4.93;;;2.40;;
56299;SDS011;42209;6.376;-10.782;2023-05-10T12:37:03;6.43;;;3.17;;
56299;SDS011;42209;6.376;-10.782;2023-05-10T12:39:42;4.35;;;2.40;;
56299;SDS011;42209;6.376;-10.782;2023-05-10T12:42:12;3.85;;;2.58;;
56299;SDS011;42209;6.376;-10.782;2023-05-10T12:44:40;4.80;;;3.15;;
56299;SDS011;42209;6.376;-10.782;2023-05-10T12:47:10;5.55;;;2.90;;
56299;SDS011;42209;6.376;-10.782;2023-05-10T12:49:38;5.35;;;2.58;;
56299;SDS011;42209;6.376;-10.782;2023-05-10T12:52:06;5.80;;;1.90;;
56299;SDS011;42209;6.376;-10.782;2023-05-10T12:54:35;6.63;;;2.55;;
56299;SDS011;42209;6.376;-10.782;2023-05-10T12:57:03;4.68;;;2.63;;
56299;SDS011;42209;6.376;-10.782;2023-05-10T12:59:31;4.15;;;2.90;;
56299;SDS011;42209;6.376;-10.782;2023-05-10T13:02:04;3.40;;;2.10;;
56299;SDS011;42209;6.376;-10.782;2023-05-10T13:04:33;4.70;;;3.00;;
56299;SDS011;42209;6.376;-10.782;2023-05-10T13:07:02;3.40;;;1.75;;
56299;SDS011;42209;6.376;-10.782;2023-05-10T13:09:32;3.80;;;2.80;;
56299;SDS011;42209;6.376;-10.782;2023-05-10T13:12:01;5.45;;;2.17;;
56299;SDS011;42209;6.376;-10.782;2023-05-10T13:16:57;3.38;;;1.75;;
56299;SDS011;42209;6.376;-10.782;2023-05-10T13:19:26;4.90;;;2.42;;
56299;SDS011;42209;6.376;-10.782;2023-05-10T13:21:54;5.72;;;2.85;;
56299;SDS011;42209;6.376;-10.782;2023-05-10T13:24:23;5.63;;;2.25;;
56299;SDS011;42209;6.376;-10.782;2023-05-10T13:26:51;5.00;;;2.65;;
56299;SDS011;42209;6.376;-10.782;2023-05-10T13:29:19;4.63;;;2.50;;
56299;SDS011;42209;6.376;-10.782;2023-05-10T13:31:48;3.80;;;2.30;;
56299;SDS011;42209;6.376;-10.782;2023-05-10T13:34:17;3.83;;;1.95;;
56299;SDS011;42209;6.376;-10.782;2023-05-10T13:36:47;4.00;;;2.08;;
56299;SDS011;42209;6.376;-10.782;2023-05-10T13:39:16;3.80;;;2.03;;
56299;SDS011;42209;6.376;-10.782;2023-05-10T13:41:44;3.72;;;1.88;;
56299;SDS011;42209;6.376;-10.782;2023-05-10T13:44:13;4.38;;;1.90;;
56299;SDS011;42209;6.376;-10.782;2023-05-10T13:46:42;4.28;;;1.92;;
56299;SDS011;42209;6.376;-10.782;2023-05-10T13:49:10;3.63;;;2.10;;
56299;SDS011;42209;6.376;-10.782;2023-05-10T13:51:38;4.75;;;2.05;;
56299;SDS011;42209;6.376;-10.782;2023-05-10T13:54:06;3.47;;;2.17;;
56299;SDS011;42209;6.376;-10.782;2023-05-10T13:56:39;4.57;;;2.70;;
56299;SDS011;42209;6.376;-10.782;2023-05-10T13:59:09;4.10;;;1.90;;
56299;SDS011;42209;6.376;-10.782;2023-05-10T14:01:37;4.68;;;2.45;;
56299;SDS011;42209;6.376;-10.782;2023-05-10T14:04:09;4.88;;;2.00;;
56299;SDS011;42209;6.376;-10.782;2023-05-10T14:06:37;3.80;;;2.25;;
56299;SDS011;42209;6.376;-10.782;2023-05-10T14:09:05;7.38;;;2.92;;
56299;SDS011;42209;6.376;-10.782;2023-05-10T14:11:34;5.78;;;2.75;;
56299;SDS011;42209;6.376;-10.782;2023-05-10T14:14:02;3.88;;;2.10;;
56299;SDS011;42209;6.376;-10.782;2023-05-10T14:16:30;4.28;;;1.63;;
56299;SDS011;42209;6.376;-10.782;2023-05-10T14:18:59;2.83;;;1.98;;
56299;SDS011;42209;6.376;-10.782;2023-05-10T14:21:30;2.83;;;1.90;;
56299;SDS011;42209;6.376;-10.782;2023-05-10T14:23:59;3.88;;;1.88;;
56299;SDS011;42209;6.376;-10.782;2023-05-10T14:26:28;2.83;;;1.85;;
56299;SDS011;42209;6.376;-10.782;2023-05-10T14:28:57;4.72;;;2.67;;
56299;SDS011;42209;6.376;-10.782;2023-05-10T14:31:27;3.97;;;2.10;;
56299;SDS011;42209;6.376;-10.782;2023-05-10T15:59:25;5.20;;;2.60;;
56299;SDS011;42209;6.376;-10.782;2023-05-10T16:01:53;10.70;;;3.65;;
56299;SDS011;42209;6.376;-10.782;2023-05-10T16:04:22;5.07;;;3.30;;
56299;SDS011;42209;6.376;-10.782;2023-05-10T16:09:20;6.75;;;2.92;;
56299;SDS011;42209;6.376;-10.782;2023-05-10T16:11:49;12.10;;;3.50;;
56299;SDS011;42209;6.376;-10.782;2023-05-10T16:14:17;11.98;;;3.30;;
56299;SDS011;42209;6.376;-10.782;2023-05-10T16:16:45;8.13;;;3.45;;
56299;SDS011;42209;6.376;-10.782;2023-05-10T16:19:14;7.78;;;3.08;;
56299;SDS011;42209;6.376;-10.782;2023-05-10T16:21:42;7.82;;;3.42;;
56299;SDS011;42209;6.376;-10.782;2023-05-10T16:24:11;7.03;;;2.78;;
56299;SDS011;42209;6.376;-10.782;2023-05-10T16:26:39;6.45;;;3.05;;
56299;SDS011;42209;6.376;-10.782;2023-05-10T16:29:08;5.05;;;2.20;;
56299;SDS011;42209;6.376;-10.782;2023-05-10T16:31:36;7.93;;;3.40;;
56299;SDS011;42209;6.376;-10.782;2023-05-10T16:34:04;5.93;;;2.80;;
56299;SDS011;42209;6.376;-10.782;2023-05-10T16:36:32;6.30;;;2.83;;
56299;SDS011;42209;6.376;-10.782;2023-05-10T16:39:01;7.20;;;3.33;;
56299;SDS011;42209;6.376;-10.782;2023-05-10T16:41:31;5.68;;;3.13;;
56299;SDS011;42209;6.376;-10.782;2023-05-10T16:44:00;6.05;;;2.30;;
56299;SDS011;42209;6.376;-10.782;2023-05-10T16:46:34;6.32;;;2.75;;
56299;SDS011;42209;6.376;-10.782;2023-05-10T16:49:02;5.05;;;3.03;;
56299;SDS011;42209;6.376;-10.782;2023-05-10T16:51:30;5.60;;;3.20;;
56299;SDS011;42209;6.376;-10.782;2023-05-10T16:53:58;6.38;;;3.53;;
56299;SDS011;42209;6.376;-10.782;2023-05-10T16:56:27;4.38;;;2.40;;
56299;SDS011;42209;6.376;-10.782;2023-05-10T16:58:55;5.03;;;3.03;;
56299;SDS011;42209;6.376;-10.782;2023-05-10T17:01:23;4.00;;;2.78;;
56299;SDS011;42209;6.376;-10.782;2023-05-10T17:03:53;6.18;;;2.60;;
56299;SDS011;42209;6.376;-10.782;2023-05-10T17:06:21;3.47;;;1.92;;
56299;SDS011;42209;6.376;-10.782;2023-05-10T17:08:50;5.80;;;2.63;;
56299;SDS011;42209;6.376;-10.782;2023-05-10T17:11:18;6.47;;;3.03;;
56299;SDS011;42209;6.376;-10.782;2023-05-10T17:13:46;5.30;;;2.85;;
56299;SDS011;42209;6.376;-10.782;2023-05-10T17:16:14;5.78;;;2.38;;
56299;SDS011;42209;6.376;-10.782;2023-05-10T17:18:43;3.80;;;2.60;;
56299;SDS011;42209;6.376;-10.782;2023-05-10T17:21:11;5.97;;;2.30;;